sensor_id;sensor_type;location;lat;lon;timestamp;P1;durP1;ratioP1;P2;durP2;ratioP2
55065;SDS011;40964;42.114;24.220;2023-07-13T00:02:09;11.13;;;6.20;;
55065;SDS011;40964;42.114;24.220;2023-07-13T00:04:35;9.75;;;6.65;;
55065;SDS011;40964;42.114;24.220;2023-07-13T00:07:01;7.80;;;6.30;;
55065;SDS011;40964;42.114;24.220;2023-07-13T00:09:27;12.48;;;6.47;;
55065;SDS011;40964;42.114;24.220;2023-07-13T00:11:54;9.18;;;6.07;;
55065;SDS011;40964;42.114;24.220;2023-07-13T00:14:22;7.93;;;6.32;;
55065;SDS011;40964;42.114;24.220;2023-07-13T00:16:48;11.18;;;6.55;;
55065;SDS011;40964;42.114;24.220;2023-07-13T00:19:13;11.63;;;6.93;;
55065;SDS011;40964;42.114;24.220;2023-07-13T00:21:39;10.68;;;6.38;;
55065;SDS011;40964;42.114;24.220;2023-07-13T00:24:05;9.23;;;5.88;;
55065;SDS011;40964;42.114;24.220;2023-07-13T00:26:32;9.50;;;5.95;;
55065;SDS011;40964;42.114;24.220;2023-07-13T00:28:59;9.02;;;6.13;;
55065;SDS011;40964;42.114;24.220;2023-07-13T00:31:24;9.45;;;5.63;;
55065;SDS011;40964;42.114;24.220;2023-07-13T00:33:50;9.52;;;5.90;;
55065;SDS011;40964;42.114;24.220;2023-07-13T00:36:16;9.40;;;6.22;;
55065;SDS011;40964;42.114;24.220;2023-07-13T00:38:42;9.43;;;5.80;;
55065;SDS011;40964;42.114;24.220;2023-07-13T00:41:07;10.00;;;6.35;;
55065;SDS011;40964;42.114;24.220;2023-07-13T00:43:33;7.75;;;5.93;;
55065;SDS011;40964;42.114;24.220;2023-07-13T00:48:35;9.55;;;7.00;;
55065;SDS011;40964;42.114;24.220;2023-07-13T00:51:03;12.25;;;6.25;;
55065;SDS011;40964;42.114;24.220;2023-07-13T00:53:29;6.55;;;5.40;;
55065;SDS011;40964;42.114;24.220;2023-07-13T00:55:57;8.90;;;6.32;;
55065;SDS011;40964;42.114;24.220;2023-07-13T00:58:24;10.05;;;6.55;;
55065;SDS011;40964;42.114;24.220;2023-07-13T01:00:51;11.30;;;6.60;;
55065;SDS011;40964;42.114;24.220;2023-07-13T01:03:17;8.35;;;6.20;;
55065;SDS011;40964;42.114;24.220;2023-07-13T01:05:43;7.88;;;6.07;;
55065;SDS011;40964;42.114;24.220;2023-07-13T01:08:11;8.48;;;6.60;;
55065;SDS011;40964;42.114;24.220;2023-07-13T01:10:37;7.45;;;5.68;;
55065;SDS011;40964;42.114;24.220;2023-07-13T01:13:07;8.63;;;6.13;;
55065;SDS011;40964;42.114;24.220;2023-07-13T01:18:11;8.48;;;6.07;;
55065;SDS011;40964;42.114;24.220;2023-07-13T01:20:39;7.55;;;5.60;;
55065;SDS011;40964;42.114;24.220;2023-07-13T01:23:06;8.30;;;5.97;;
55065;SDS011;40964;42.114;24.220;2023-07-13T01:25:34;9.68;;;6.18;;
55065;SDS011;40964;42.114;24.220;2023-07-13T01:28:01;8.50;;;5.82;;
55065;SDS011;40964;42.114;24.220;2023-07-13T01:30:27;8.55;;;6.35;;
55065;SDS011;40964;42.114;24.220;2023-07-13T01:32:52;7.35;;;5.55;;
55065;SDS011;40964;42.114;24.220;2023-07-13T01:35:18;6.97;;;5.82;;
55065;SDS011;40964;42.114;24.220;2023-07-13T01:37:43;8.00;;;6.03;;
55065;SDS011;40964;42.114;24.220;2023-07-13T01:40:10;8.48;;;5.70;;
55065;SDS011;40964;42.114;24.220;2023-07-13T01:42:36;12.38;;;6.25;;
55065;SDS011;40964;42.114;24.220;2023-07-13T01:45:02;12.40;;;6.85;;
55065;SDS011;40964;42.114;24.220;2023-07-13T01:47:28;11.30;;;6.03;;
55065;SDS011;40964;42.114;24.220;2023-07-13T01:49:56;9.30;;;6.03;;
55065;SDS011;40964;42.114;24.220;2023-07-13T01:52:24;10.00;;;6.03;;
55065;SDS011;40964;42.114;24.220;2023-07-13T01:54:49;9.82;;;6.20;;
55065;SDS011;40964;42.114;24.220;2023-07-13T01:57:15;11.48;;;6.57;;
55065;SDS011;40964;42.114;24.220;2023-07-13T01:59:40;8.80;;;5.40;;
55065;SDS011;40964;42.114;24.220;2023-07-13T02:02:06;8.40;;;5.90;;
55065;SDS011;40964;42.114;24.220;2023-07-13T02:04:32;8.05;;;6.03;;
55065;SDS011;40964;42.114;24.220;2023-07-13T02:06:58;8.23;;;5.80;;
55065;SDS011;40964;42.114;24.220;2023-07-13T02:09:23;10.23;;;6.57;;
55065;SDS011;40964;42.114;24.220;2023-07-13T02:11:49;7.75;;;5.80;;
55065;SDS011;40964;42.114;24.220;2023-07-13T02:14:14;11.43;;;6.03;;
55065;SDS011;40964;42.114;24.220;2023-07-13T02:16:40;9.20;;;5.80;;
55065;SDS011;40964;42.114;24.220;2023-07-13T02:19:06;8.65;;;5.60;;
55065;SDS011;40964;42.114;24.220;2023-07-13T02:21:32;9.20;;;5.97;;
55065;SDS011;40964;42.114;24.220;2023-07-13T02:23:58;11.35;;;6.35;;
55065;SDS011;40964;42.114;24.220;2023-07-13T02:26:25;13.15;;;6.53;;
55065;SDS011;40964;42.114;24.220;2023-07-13T02:28:51;8.73;;;5.82;;
55065;SDS011;40964;42.114;24.220;2023-07-13T02:31:17;8.40;;;6.03;;
55065;SDS011;40964;42.114;24.220;2023-07-13T02:33:42;9.00;;;5.63;;
55065;SDS011;40964;42.114;24.220;2023-07-13T02:36:08;8.25;;;6.28;;
55065;SDS011;40964;42.114;24.220;2023-07-13T02:38:34;8.30;;;6.07;;
55065;SDS011;40964;42.114;24.220;2023-07-13T02:41:01;12.30;;;6.65;;
55065;SDS011;40964;42.114;24.220;2023-07-13T02:43:28;9.52;;;5.70;;
55065;SDS011;40964;42.114;24.220;2023-07-13T02:45:54;11.57;;;6.43;;
55065;SDS011;40964;42.114;24.220;2023-07-13T02:48:20;9.95;;;6.03;;
55065;SDS011;40964;42.114;24.220;2023-07-13T02:50:45;8.95;;;5.88;;
55065;SDS011;40964;42.114;24.220;2023-07-13T02:53:11;8.30;;;5.63;;
55065;SDS011;40964;42.114;24.220;2023-07-13T02:55:36;8.27;;;5.95;;
55065;SDS011;40964;42.114;24.220;2023-07-13T02:58:02;10.88;;;6.53;;
55065;SDS011;40964;42.114;24.220;2023-07-13T03:00:28;9.40;;;6.07;;
55065;SDS011;40964;42.114;24.220;2023-07-13T03:02:53;11.85;;;6.57;;
55065;SDS011;40964;42.114;24.220;2023-07-13T03:05:22;11.85;;;6.90;;
55065;SDS011;40964;42.114;24.220;2023-07-13T03:07:47;10.32;;;6.43;;
55065;SDS011;40964;42.114;24.220;2023-07-13T03:10:12;9.35;;;6.88;;
55065;SDS011;40964;42.114;24.220;2023-07-13T03:12:38;11.02;;;6.78;;
55065;SDS011;40964;42.114;24.220;2023-07-13T03:15:04;10.90;;;6.35;;
55065;SDS011;40964;42.114;24.220;2023-07-13T03:17:30;9.88;;;6.38;;
55065;SDS011;40964;42.114;24.220;2023-07-13T03:19:55;14.40;;;6.28;;
55065;SDS011;40964;42.114;24.220;2023-07-13T03:22:20;10.57;;;6.68;;
55065;SDS011;40964;42.114;24.220;2023-07-13T03:24:46;11.77;;;7.13;;
55065;SDS011;40964;42.114;24.220;2023-07-13T03:27:12;10.90;;;5.85;;
55065;SDS011;40964;42.114;24.220;2023-07-13T03:29:37;9.63;;;6.10;;
55065;SDS011;40964;42.114;24.220;2023-07-13T03:32:03;10.70;;;6.95;;
55065;SDS011;40964;42.114;24.220;2023-07-13T03:34:29;13.90;;;6.22;;
55065;SDS011;40964;42.114;24.220;2023-07-13T03:36:55;12.02;;;6.90;;
55065;SDS011;40964;42.114;24.220;2023-07-13T03:39:21;9.93;;;6.32;;
55065;SDS011;40964;42.114;24.220;2023-07-13T03:41:47;12.35;;;7.03;;
55065;SDS011;40964;42.114;24.220;2023-07-13T03:44:12;17.15;;;6.05;;
55065;SDS011;40964;42.114;24.220;2023-07-13T03:46:38;10.20;;;6.75;;
55065;SDS011;40964;42.114;24.220;2023-07-13T03:49:04;11.95;;;6.55;;
55065;SDS011;40964;42.114;24.220;2023-07-13T03:51:30;9.32;;;5.97;;
55065;SDS011;40964;42.114;24.220;2023-07-13T03:53:56;8.55;;;6.60;;
55065;SDS011;40964;42.114;24.220;2023-07-13T03:56:22;6.60;;;5.38;;
55065;SDS011;40964;42.114;24.220;2023-07-13T03:58:48;20.70;;;7.97;;
55065;SDS011;40964;42.114;24.220;2023-07-13T04:01:16;14.43;;;7.20;;
55065;SDS011;40964;42.114;24.220;2023-07-13T04:03:43;13.75;;;6.70;;
55065;SDS011;40964;42.114;24.220;2023-07-13T04:06:12;11.68;;;5.80;;
55065;SDS011;40964;42.114;24.220;2023-07-13T04:08:53;13.88;;;6.10;;
55065;SDS011;40964;42.114;24.220;2023-07-13T04:11:20;14.20;;;6.22;;
55065;SDS011;40964;42.114;24.220;2023-07-13T04:13:48;19.58;;;6.65;;
55065;SDS011;40964;42.114;24.220;2023-07-13T04:16:15;8.45;;;6.10;;
55065;SDS011;40964;42.114;24.220;2023-07-13T04:18:41;14.18;;;6.45;;
55065;SDS011;40964;42.114;24.220;2023-07-13T04:21:07;8.65;;;5.90;;
55065;SDS011;40964;42.114;24.220;2023-07-13T04:23:34;7.13;;;5.47;;
55065;SDS011;40964;42.114;24.220;2023-07-13T04:26:00;9.18;;;6.55;;
55065;SDS011;40964;42.114;24.220;2023-07-13T04:28:26;9.45;;;5.93;;
55065;SDS011;40964;42.114;24.220;2023-07-13T04:30:52;11.63;;;6.75;;
55065;SDS011;40964;42.114;24.220;2023-07-13T04:33:18;8.32;;;6.50;;
55065;SDS011;40964;42.114;24.220;2023-07-13T04:35:47;9.18;;;6.68;;
55065;SDS011;40964;42.114;24.220;2023-07-13T04:38:14;17.40;;;7.05;;
55065;SDS011;40964;42.114;24.220;2023-07-13T04:40:42;13.93;;;6.90;;
55065;SDS011;40964;42.114;24.220;2023-07-13T04:43:10;10.10;;;6.95;;
55065;SDS011;40964;42.114;24.220;2023-07-13T04:45:36;12.88;;;7.35;;
55065;SDS011;40964;42.114;24.220;2023-07-13T04:48:01;11.10;;;7.40;;
55065;SDS011;40964;42.114;24.220;2023-07-13T04:50:27;13.20;;;7.80;;
55065;SDS011;40964;42.114;24.220;2023-07-13T04:52:52;10.15;;;7.20;;
55065;SDS011;40964;42.114;24.220;2023-07-13T04:55:18;11.25;;;7.90;;
55065;SDS011;40964;42.114;24.220;2023-07-13T04:57:44;13.88;;;6.93;;
55065;SDS011;40964;42.114;24.220;2023-07-13T05:00:11;10.90;;;7.70;;
55065;SDS011;40964;42.114;24.220;2023-07-13T05:02:38;13.38;;;7.93;;
55065;SDS011;40964;42.114;24.220;2023-07-13T05:05:04;11.05;;;7.35;;
55065;SDS011;40964;42.114;24.220;2023-07-13T05:07:30;11.32;;;7.70;;
55065;SDS011;40964;42.114;24.220;2023-07-13T05:09:58;11.32;;;7.63;;
55065;SDS011;40964;42.114;24.220;2023-07-13T05:12:27;12.15;;;7.75;;
55065;SDS011;40964;42.114;24.220;2023-07-13T05:14:52;9.98;;;7.78;;
55065;SDS011;40964;42.114;24.220;2023-07-13T05:17:17;12.48;;;7.82;;
55065;SDS011;40964;42.114;24.220;2023-07-13T05:19:43;11.85;;;8.00;;
55065;SDS011;40964;42.114;24.220;2023-07-13T05:22:09;13.23;;;7.93;;
55065;SDS011;40964;42.114;24.220;2023-07-13T05:24:35;9.48;;;7.53;;
55065;SDS011;40964;42.114;24.220;2023-07-13T05:27:00;12.55;;;7.45;;
55065;SDS011;40964;42.114;24.220;2023-07-13T05:29:26;14.10;;;7.72;;
55065;SDS011;40964;42.114;24.220;2023-07-13T05:31:51;11.85;;;7.60;;
55065;SDS011;40964;42.114;24.220;2023-07-13T05:34:17;13.38;;;7.93;;
55065;SDS011;40964;42.114;24.220;2023-07-13T05:36:42;12.70;;;8.35;;
55065;SDS011;40964;42.114;24.220;2023-07-13T05:39:08;13.80;;;7.97;;
55065;SDS011;40964;42.114;24.220;2023-07-13T05:41:35;11.90;;;8.02;;
55065;SDS011;40964;42.114;24.220;2023-07-13T05:44:01;10.75;;;7.82;;
55065;SDS011;40964;42.114;24.220;2023-07-13T05:46:26;11.75;;;7.90;;
55065;SDS011;40964;42.114;24.220;2023-07-13T05:48:52;10.73;;;7.97;;
55065;SDS011;40964;42.114;24.220;2023-07-13T05:51:17;11.30;;;8.05;;
55065;SDS011;40964;42.114;24.220;2023-07-13T05:53:43;10.65;;;8.38;;
55065;SDS011;40964;42.114;24.220;2023-07-13T05:56:08;10.63;;;8.25;;
55065;SDS011;40964;42.114;24.220;2023-07-13T05:58:34;11.57;;;8.30;;
55065;SDS011;40964;42.114;24.220;2023-07-13T06:01:10;12.07;;;8.20;;
55065;SDS011;40964;42.114;24.220;2023-07-13T06:03:37;15.35;;;8.15;;
55065;SDS011;40964;42.114;24.220;2023-07-13T06:06:06;13.27;;;8.40;;
55065;SDS011;40964;42.114;24.220;2023-07-13T06:08:32;12.95;;;7.70;;
55065;SDS011;40964;42.114;24.220;2023-07-13T06:11:06;10.30;;;7.97;;
55065;SDS011;40964;42.114;24.220;2023-07-13T06:13:42;10.00;;;8.27;;
55065;SDS011;40964;42.114;24.220;2023-07-13T06:16:08;11.68;;;7.95;;
55065;SDS011;40964;42.114;24.220;2023-07-13T06:18:34;10.27;;;8.55;;
55065;SDS011;40964;42.114;24.220;2023-07-13T06:21:05;14.00;;;8.68;;
55065;SDS011;40964;42.114;24.220;2023-07-13T06:23:34;10.75;;;8.07;;
55065;SDS011;40964;42.114;24.220;2023-07-13T06:26:00;10.70;;;8.20;;
55065;SDS011;40964;42.114;24.220;2023-07-13T06:28:26;10.75;;;8.85;;
55065;SDS011;40964;42.114;24.220;2023-07-13T06:30:52;10.85;;;7.90;;
55065;SDS011;40964;42.114;24.220;2023-07-13T06:33:17;11.18;;;8.45;;
55065;SDS011;40964;42.114;24.220;2023-07-13T06:35:42;14.25;;;8.82;;
55065;SDS011;40964;42.114;24.220;2023-07-13T06:38:08;11.75;;;8.77;;
55065;SDS011;40964;42.114;24.220;2023-07-13T06:40:33;11.85;;;8.25;;
55065;SDS011;40964;42.114;24.220;2023-07-13T06:42:59;11.20;;;8.45;;
55065;SDS011;40964;42.114;24.220;2023-07-13T06:45:24;11.70;;;8.65;;
55065;SDS011;40964;42.114;24.220;2023-07-13T06:47:50;11.73;;;8.80;;
55065;SDS011;40964;42.114;24.220;2023-07-13T06:50:15;15.05;;;8.43;;
55065;SDS011;40964;42.114;24.220;2023-07-13T06:52:41;28.02;;;9.52;;
55065;SDS011;40964;42.114;24.220;2023-07-13T06:55:06;12.73;;;8.85;;
55065;SDS011;40964;42.114;24.220;2023-07-13T06:57:33;13.05;;;8.95;;
55065;SDS011;40964;42.114;24.220;2023-07-13T06:59:58;11.73;;;8.63;;
55065;SDS011;40964;42.114;24.220;2023-07-13T07:02:24;9.38;;;8.25;;
55065;SDS011;40964;42.114;24.220;2023-07-13T07:04:49;13.98;;;8.15;;
55065;SDS011;40964;42.114;24.220;2023-07-13T07:07:15;13.15;;;8.40;;
55065;SDS011;40964;42.114;24.220;2023-07-13T07:09:40;12.70;;;8.60;;
55065;SDS011;40964;42.114;24.220;2023-07-13T07:12:06;11.30;;;8.02;;
55065;SDS011;40964;42.114;24.220;2023-07-13T07:14:32;11.18;;;7.93;;
55065;SDS011;40964;42.114;24.220;2023-07-13T07:16:59;21.35;;;8.13;;
55065;SDS011;40964;42.114;24.220;2023-07-13T07:19:24;10.63;;;7.60;;
55065;SDS011;40964;42.114;24.220;2023-07-13T07:21:50;12.32;;;8.00;;
55065;SDS011;40964;42.114;24.220;2023-07-13T07:24:15;13.38;;;8.07;;
55065;SDS011;40964;42.114;24.220;2023-07-13T07:26:41;9.88;;;8.20;;
55065;SDS011;40964;42.114;24.220;2023-07-13T07:29:06;12.30;;;8.13;;
55065;SDS011;40964;42.114;24.220;2023-07-13T07:31:32;10.77;;;7.90;;
55065;SDS011;40964;42.114;24.220;2023-07-13T07:33:57;9.95;;;8.10;;
55065;SDS011;40964;42.114;24.220;2023-07-13T07:36:22;10.43;;;7.80;;
55065;SDS011;40964;42.114;24.220;2023-07-13T07:38:48;10.15;;;7.53;;
55065;SDS011;40964;42.114;24.220;2023-07-13T07:41:13;10.70;;;7.38;;
55065;SDS011;40964;42.114;24.220;2023-07-13T07:43:39;11.43;;;7.30;;
55065;SDS011;40964;42.114;24.220;2023-07-13T07:46:04;9.73;;;8.00;;
55065;SDS011;40964;42.114;24.220;2023-07-13T07:48:30;9.50;;;7.78;;
55065;SDS011;40964;42.114;24.220;2023-07-13T07:50:56;14.05;;;7.32;;
55065;SDS011;40964;42.114;24.220;2023-07-13T07:53:22;12.93;;;7.32;;
55065;SDS011;40964;42.114;24.220;2023-07-13T07:55:47;8.85;;;7.90;;
55065;SDS011;40964;42.114;24.220;2023-07-13T07:58:13;12.35;;;7.00;;
55065;SDS011;40964;42.114;24.220;2023-07-13T08:00:39;9.63;;;7.47;;
55065;SDS011;40964;42.114;24.220;2023-07-13T08:03:05;8.70;;;7.20;;
55065;SDS011;40964;42.114;24.220;2023-07-13T08:05:30;10.55;;;7.50;;
55065;SDS011;40964;42.114;24.220;2023-07-13T08:07:56;7.97;;;6.88;;
55065;SDS011;40964;42.114;24.220;2023-07-13T08:10:21;11.73;;;7.03;;
55065;SDS011;40964;42.114;24.220;2023-07-13T08:12:47;8.68;;;7.03;;
55065;SDS011;40964;42.114;24.220;2023-07-13T08:15:13;8.75;;;7.07;;
55065;SDS011;40964;42.114;24.220;2023-07-13T08:17:40;10.43;;;7.40;;
55065;SDS011;40964;42.114;24.220;2023-07-13T08:20:06;8.93;;;7.03;;
55065;SDS011;40964;42.114;24.220;2023-07-13T08:25:08;7.97;;;6.30;;
55065;SDS011;40964;42.114;24.220;2023-07-13T08:27:33;7.00;;;5.88;;
55065;SDS011;40964;42.114;24.220;2023-07-13T08:29:59;6.93;;;6.20;;
55065;SDS011;40964;42.114;24.220;2023-07-13T08:32:27;8.88;;;6.30;;
55065;SDS011;40964;42.114;24.220;2023-07-13T08:34:53;7.00;;;6.18;;
55065;SDS011;40964;42.114;24.220;2023-07-13T08:37:19;7.68;;;5.80;;
55065;SDS011;40964;42.114;24.220;2023-07-13T08:39:45;7.20;;;6.28;;
55065;SDS011;40964;42.114;24.220;2023-07-13T08:42:14;7.93;;;6.13;;
55065;SDS011;40964;42.114;24.220;2023-07-13T08:50:48;10.02;;;6.22;;
55065;SDS011;40964;42.114;24.220;2023-07-13T08:53:36;9.63;;;6.43;;
55065;SDS011;40964;42.114;24.220;2023-07-13T08:56:08;9.38;;;6.15;;
55065;SDS011;40964;42.114;24.220;2023-07-13T08:58:41;7.10;;;6.07;;
55065;SDS011;40964;42.114;24.220;2023-07-13T09:01:19;7.45;;;6.63;;
55065;SDS011;40964;42.114;24.220;2023-07-13T09:04:05;8.02;;;6.03;;
55065;SDS011;40964;42.114;24.220;2023-07-13T09:07:18;7.53;;;5.20;;
55065;SDS011;40964;42.114;24.220;2023-07-13T09:14:37;8.98;;;4.53;;
55065;SDS011;40964;42.114;24.220;2023-07-13T09:17:30;6.10;;;4.03;;
55065;SDS011;40964;42.114;24.220;2023-07-13T09:20:02;5.85;;;4.60;;
55065;SDS011;40964;42.114;24.220;2023-07-13T09:22:35;7.18;;;4.68;;
55065;SDS011;40964;42.114;24.220;2023-07-13T09:27:41;6.65;;;4.60;;
55065;SDS011;40964;42.114;24.220;2023-07-13T09:32:39;8.13;;;5.03;;
55065;SDS011;40964;42.114;24.220;2023-07-13T09:35:11;5.43;;;4.40;;
55065;SDS011;40964;42.114;24.220;2023-07-13T09:37:39;6.00;;;4.15;;
55065;SDS011;40964;42.114;24.220;2023-07-13T09:40:08;5.80;;;4.32;;
55065;SDS011;40964;42.114;24.220;2023-07-13T09:42:58;5.03;;;4.25;;
55065;SDS011;40964;42.114;24.220;2023-07-13T09:45:28;5.35;;;4.85;;
55065;SDS011;40964;42.114;24.220;2023-07-13T09:47:59;7.03;;;4.13;;
55065;SDS011;40964;42.114;24.220;2023-07-13T09:50:28;8.02;;;4.60;;
55065;SDS011;40964;42.114;24.220;2023-07-13T09:52:54;4.53;;;4.03;;
55065;SDS011;40964;42.114;24.220;2023-07-13T09:57:49;5.65;;;4.47;;
55065;SDS011;40964;42.114;24.220;2023-07-13T10:00:21;8.02;;;4.57;;
55065;SDS011;40964;42.114;24.220;2023-07-13T10:02:57;4.95;;;4.25;;
55065;SDS011;40964;42.114;24.220;2023-07-13T10:05:25;5.10;;;4.57;;
55065;SDS011;40964;42.114;24.220;2023-07-13T10:07:50;7.70;;;4.95;;
55065;SDS011;40964;42.114;24.220;2023-07-13T10:10:17;5.80;;;5.20;;
55065;SDS011;40964;42.114;24.220;2023-07-13T10:12:46;6.25;;;5.30;;
55065;SDS011;40964;42.114;24.220;2023-07-13T10:15:23;7.68;;;4.72;;
55065;SDS011;40964;42.114;24.220;2023-07-13T10:17:51;7.13;;;4.57;;
55065;SDS011;40964;42.114;24.220;2023-07-13T10:20:17;7.82;;;4.90;;
55065;SDS011;40964;42.114;24.220;2023-07-13T10:22:49;5.43;;;4.40;;
55065;SDS011;40964;42.114;24.220;2023-07-13T10:25:20;5.80;;;4.78;;
55065;SDS011;40964;42.114;24.220;2023-07-13T10:27:55;9.10;;;4.93;;
55065;SDS011;40964;42.114;24.220;2023-07-13T10:30:43;6.90;;;4.78;;
55065;SDS011;40964;42.114;24.220;2023-07-13T10:33:12;5.70;;;5.13;;
55065;SDS011;40964;42.114;24.220;2023-07-13T10:35:42;9.07;;;4.93;;
55065;SDS011;40964;42.114;24.220;2023-07-13T10:38:18;8.63;;;5.13;;
55065;SDS011;40964;42.114;24.220;2023-07-13T10:43:22;7.78;;;5.15;;
55065;SDS011;40964;42.114;24.220;2023-07-13T10:45:52;6.00;;;4.30;;
55065;SDS011;40964;42.114;24.220;2023-07-13T10:48:19;5.45;;;4.78;;
55065;SDS011;40964;42.114;24.220;2023-07-13T10:50:48;5.00;;;4.57;;
55065;SDS011;40964;42.114;24.220;2023-07-13T10:53:19;7.07;;;4.80;;
55065;SDS011;40964;42.114;24.220;2023-07-13T10:58:31;6.97;;;4.55;;
55065;SDS011;40964;42.114;24.220;2023-07-13T11:03:32;7.57;;;5.00;;
55065;SDS011;40964;42.114;24.220;2023-07-13T11:06:11;7.63;;;5.28;;
55065;SDS011;40964;42.114;24.220;2023-07-13T11:18:51;11.98;;;4.68;;
55065;SDS011;40964;42.114;24.220;2023-07-13T11:21:18;7.07;;;4.47;;
55065;SDS011;40964;42.114;24.220;2023-07-13T11:23:53;11.05;;;5.93;;
55065;SDS011;40964;42.114;24.220;2023-07-13T11:26:41;5.93;;;4.45;;
55065;SDS011;40964;42.114;24.220;2023-07-13T11:29:53;15.37;;;5.17;;
55065;SDS011;40964;42.114;24.220;2023-07-13T11:31:57;7.20;;;5.20;;
55065;SDS011;40964;42.114;24.220;2023-07-13T11:34:27;8.38;;;4.95;;
55065;SDS011;40964;42.114;24.220;2023-07-13T11:36:59;5.88;;;4.65;;
55065;SDS011;40964;42.114;24.220;2023-07-13T11:39:32;7.75;;;5.20;;
55065;SDS011;40964;42.114;24.220;2023-07-13T11:42:00;6.93;;;5.10;;
55065;SDS011;40964;42.114;24.220;2023-07-13T11:44:29;7.95;;;5.15;;
55065;SDS011;40964;42.114;24.220;2023-07-13T11:46:56;7.75;;;5.00;;
55065;SDS011;40964;42.114;24.220;2023-07-13T11:49:29;9.00;;;4.68;;
55065;SDS011;40964;42.114;24.220;2023-07-13T11:51:56;16.10;;;4.95;;
55065;SDS011;40964;42.114;24.220;2023-07-13T11:54:30;9.55;;;4.78;;
55065;SDS011;40964;42.114;24.220;2023-07-13T11:57:05;10.35;;;4.60;;
55065;SDS011;40964;42.114;24.220;2023-07-13T11:59:48;5.40;;;4.47;;
55065;SDS011;40964;42.114;24.220;2023-07-13T12:02:17;8.40;;;4.68;;
55065;SDS011;40964;42.114;24.220;2023-07-13T12:04:53;5.55;;;4.00;;
55065;SDS011;40964;42.114;24.220;2023-07-13T12:07:19;6.70;;;4.38;;
55065;SDS011;40964;42.114;24.220;2023-07-13T12:09:45;6.85;;;4.22;;
55065;SDS011;40964;42.114;24.220;2023-07-13T12:12:11;8.77;;;4.57;;
55065;SDS011;40964;42.114;24.220;2023-07-13T12:14:38;13.90;;;4.50;;
55065;SDS011;40964;42.114;24.220;2023-07-13T12:17:19;8.02;;;4.55;;
55065;SDS011;40964;42.114;24.220;2023-07-13T12:19:45;7.22;;;4.85;;
55065;SDS011;40964;42.114;24.220;2023-07-13T12:22:14;16.83;;;4.90;;
55065;SDS011;40964;42.114;24.220;2023-07-13T12:24:41;8.98;;;3.63;;
55065;SDS011;40964;42.114;24.220;2023-07-13T12:27:16;6.55;;;3.95;;
55065;SDS011;40964;42.114;24.220;2023-07-13T12:29:52;9.05;;;4.13;;
55065;SDS011;40964;42.114;24.220;2023-07-13T12:32:26;7.15;;;4.05;;
55065;SDS011;40964;42.114;24.220;2023-07-13T12:34:55;8.18;;;4.00;;
55065;SDS011;40964;42.114;24.220;2023-07-13T12:37:45;9.82;;;5.07;;
55065;SDS011;40964;42.114;24.220;2023-07-13T12:40:18;9.50;;;4.20;;
55065;SDS011;40964;42.114;24.220;2023-07-13T12:42:48;17.63;;;4.60;;
55065;SDS011;40964;42.114;24.220;2023-07-13T12:45:26;6.93;;;4.17;;
55065;SDS011;40964;42.114;24.220;2023-07-13T12:47:54;8.00;;;4.32;;
55065;SDS011;40964;42.114;24.220;2023-07-13T12:50:28;6.45;;;4.15;;
55065;SDS011;40964;42.114;24.220;2023-07-13T12:52:59;9.25;;;4.20;;
55065;SDS011;40964;42.114;24.220;2023-07-13T12:55:28;7.05;;;4.63;;
55065;SDS011;40964;42.114;24.220;2023-07-13T12:57:58;7.65;;;4.97;;
55065;SDS011;40964;42.114;24.220;2023-07-13T13:00:29;7.05;;;4.50;;
55065;SDS011;40964;42.114;24.220;2023-07-13T13:03:03;10.10;;;4.40;;
55065;SDS011;40964;42.114;24.220;2023-07-13T13:05:37;8.77;;;5.35;;
55065;SDS011;40964;42.114;24.220;2023-07-13T13:08:03;9.00;;;4.28;;
55065;SDS011;40964;42.114;24.220;2023-07-13T13:10:28;6.32;;;4.55;;
55065;SDS011;40964;42.114;24.220;2023-07-13T13:12:54;8.57;;;5.00;;
55065;SDS011;40964;42.114;24.220;2023-07-13T13:15:19;7.45;;;4.10;;
55065;SDS011;40964;42.114;24.220;2023-07-13T13:17:47;7.53;;;4.22;;
55065;SDS011;40964;42.114;24.220;2023-07-13T13:20:17;8.80;;;4.32;;
55065;SDS011;40964;42.114;24.220;2023-07-13T13:22:46;10.38;;;4.32;;
55065;SDS011;40964;42.114;24.220;2023-07-13T13:25:12;9.85;;;4.40;;
55065;SDS011;40964;42.114;24.220;2023-07-13T13:27:40;8.88;;;4.47;;
55065;SDS011;40964;42.114;24.220;2023-07-13T13:30:11;7.90;;;4.38;;
55065;SDS011;40964;42.114;24.220;2023-07-13T13:32:38;6.75;;;4.25;;
55065;SDS011;40964;42.114;24.220;2023-07-13T13:35:05;6.97;;;4.55;;
55065;SDS011;40964;42.114;24.220;2023-07-13T13:37:31;9.25;;;4.65;;
55065;SDS011;40964;42.114;24.220;2023-07-13T13:39:57;7.57;;;4.90;;
55065;SDS011;40964;42.114;24.220;2023-07-13T13:42:22;10.23;;;4.82;;
55065;SDS011;40964;42.114;24.220;2023-07-13T13:44:50;12.05;;;4.90;;
55065;SDS011;40964;42.114;24.220;2023-07-13T13:52:23;8.82;;;4.93;;
55065;SDS011;40964;42.114;24.220;2023-07-13T13:54:49;8.27;;;4.45;;
55065;SDS011;40964;42.114;24.220;2023-07-13T13:57:15;13.23;;;4.93;;
55065;SDS011;40964;42.114;24.220;2023-07-13T13:59:40;12.23;;;4.68;;
55065;SDS011;40964;42.114;24.220;2023-07-13T14:02:38;9.20;;;4.95;;
55065;SDS011;40964;42.114;24.220;2023-07-13T14:04:58;10.70;;;4.80;;
55065;SDS011;40964;42.114;24.220;2023-07-13T14:07:26;6.63;;;4.45;;
55065;SDS011;40964;42.114;24.220;2023-07-13T14:09:55;9.60;;;4.82;;
55065;SDS011;40964;42.114;24.220;2023-07-13T14:12:24;7.47;;;4.63;;
55065;SDS011;40964;42.114;24.220;2023-07-13T14:14:53;6.47;;;4.40;;
55065;SDS011;40964;42.114;24.220;2023-07-13T14:17:21;12.38;;;5.15;;
55065;SDS011;40964;42.114;24.220;2023-07-13T14:19:52;9.15;;;4.90;;
55065;SDS011;40964;42.114;24.220;2023-07-13T14:24:57;9.48;;;4.90;;
55065;SDS011;40964;42.114;24.220;2023-07-13T14:27:24;9.88;;;5.22;;
55065;SDS011;40964;42.114;24.220;2023-07-13T14:29:51;8.30;;;4.80;;
55065;SDS011;40964;42.114;24.220;2023-07-13T14:32:16;7.03;;;4.40;;
55065;SDS011;40964;42.114;24.220;2023-07-13T14:34:42;5.80;;;4.53;;
55065;SDS011;40964;42.114;24.220;2023-07-13T14:37:11;6.15;;;4.97;;
55065;SDS011;40964;42.114;24.220;2023-07-13T14:39:39;8.50;;;4.72;;
55065;SDS011;40964;42.114;24.220;2023-07-13T14:42:08;10.73;;;4.45;;
55065;SDS011;40964;42.114;24.220;2023-07-13T14:44:34;8.68;;;4.63;;
55065;SDS011;40964;42.114;24.220;2023-07-13T14:47:02;8.93;;;4.85;;
55065;SDS011;40964;42.114;24.220;2023-07-13T14:49:30;9.25;;;4.90;;
55065;SDS011;40964;42.114;24.220;2023-07-13T14:52:00;8.40;;;4.82;;
55065;SDS011;40964;42.114;24.220;2023-07-13T14:54:27;9.82;;;5.22;;
55065;SDS011;40964;42.114;24.220;2023-07-13T14:56:53;11.98;;;5.97;;
55065;SDS011;40964;42.114;24.220;2023-07-13T14:59:18;11.25;;;5.05;;
55065;SDS011;40964;42.114;24.220;2023-07-13T15:01:44;6.00;;;4.72;;
55065;SDS011;40964;42.114;24.220;2023-07-13T15:04:11;8.95;;;5.28;;
55065;SDS011;40964;42.114;24.220;2023-07-13T15:09:25;6.35;;;4.72;;
55065;SDS011;40964;42.114;24.220;2023-07-13T15:11:54;10.15;;;5.22;;
55065;SDS011;40964;42.114;24.220;2023-07-13T15:14:21;7.18;;;5.00;;
55065;SDS011;40964;42.114;24.220;2023-07-13T15:16:47;7.57;;;4.97;;
55065;SDS011;40964;42.114;24.220;2023-07-13T15:19:16;9.27;;;4.88;;
55065;SDS011;40964;42.114;24.220;2023-07-13T15:21:43;8.45;;;5.10;;
55065;SDS011;40964;42.114;24.220;2023-07-13T15:24:09;12.95;;;5.35;;
55065;SDS011;40964;42.114;24.220;2023-07-13T15:26:36;10.48;;;5.40;;
55065;SDS011;40964;42.114;24.220;2023-07-13T15:29:02;5.88;;;4.85;;